sensor_id;sensor_type;location;lat;lon;timestamp;P1;durP1;ratioP1;P2;durP2;ratioP2
3355;SDS011;1691;52.486;13.374;2023-02-05T00:01:45;2.13;;;2.03;;
3355;SDS011;1691;52.486;13.374;2023-02-05T00:04:12;2.70;;;2.60;;
3355;SDS011;1691;52.486;13.374;2023-02-05T00:06:39;3.20;;;2.63;;
3355;SDS011;1691;52.486;13.374;2023-02-05T00:09:06;2.37;;;2.17;;
3355;SDS011;1691;52.486;13.374;2023-02-05T00:11:33;1.93;;;1.83;;
3355;SDS011;1691;52.486;13.374;2023-02-05T00:14:00;2.90;;;2.70;;
3355;SDS011;1691;52.486;13.374;2023-02-05T00:16:27;2.37;;;2.27;;
3355;SDS011;1691;52.486;13.374;2023-02-05T00:18:55;8.17;;;2.37;;
3355;SDS011;1691;52.486;13.374;2023-02-05T00:21:22;8.47;;;2.40;;
3355;SDS011;1691;52.486;13.374;2023-02-05T00:23:49;2.63;;;2.43;;
3355;SDS011;1691;52.486;13.374;2023-02-05T00:26:17;2.30;;;2.10;;
3355;SDS011;1691;52.486;13.374;2023-02-05T00:28:44;2.30;;;2.20;;
3355;SDS011;1691;52.486;13.374;2023-02-05T00:31:13;2.50;;;2.10;;
3355;SDS011;1691;52.486;13.374;2023-02-05T00:33:42;1.80;;;1.70;;
3355;SDS011;1691;52.486;13.374;2023-02-05T00:36:10;3.67;;;3.37;;
3355;SDS011;1691;52.486;13.374;2023-02-05T00:38:39;3.40;;;2.77;;
3355;SDS011;1691;52.486;13.374;2023-02-05T00:41:07;2.70;;;2.20;;
3355;SDS011;1691;52.486;13.374;2023-02-05T00:43:35;2.30;;;2.20;;
3355;SDS011;1691;52.486;13.374;2023-02-05T00:46:03;2.60;;;2.50;;
3355;SDS011;1691;52.486;13.374;2023-02-05T00:48:31;3.53;;;1.90;;
3355;SDS011;1691;52.486;13.374;2023-02-05T00:50:58;3.03;;;2.37;;
3355;SDS011;1691;52.486;13.374;2023-02-05T00:53:25;10.33;;;6.17;;
3355;SDS011;1691;52.486;13.374;2023-02-05T00:55:53;4.47;;;2.70;;
3355;SDS011;1691;52.486;13.374;2023-02-05T00:58:20;3.40;;;2.27;;
3355;SDS011;1691;52.486;13.374;2023-02-05T01:00:48;5.80;;;2.30;;
3355;SDS011;1691;52.486;13.374;2023-02-05T01:03:16;4.13;;;2.97;;
3355;SDS011;1691;52.486;13.374;2023-02-05T01:05:44;2.47;;;2.37;;
3355;SDS011;1691;52.486;13.374;2023-02-05T01:08:12;3.30;;;3.10;;
3355;SDS011;1691;52.486;13.374;2023-02-05T01:10:43;3.37;;;2.80;;
3355;SDS011;1691;52.486;13.374;2023-02-05T01:13:13;2.23;;;2.13;;
3355;SDS011;1691;52.486;13.374;2023-02-05T01:15:43;2.30;;;2.20;;
3355;SDS011;1691;52.486;13.374;2023-02-05T01:18:11;5.23;;;2.73;;
3355;SDS011;1691;52.486;13.374;2023-02-05T01:20:38;3.00;;;2.80;;
3355;SDS011;1691;52.486;13.374;2023-02-05T01:23:07;3.77;;;3.37;;
3355;SDS011;1691;52.486;13.374;2023-02-05T01:25:34;3.70;;;3.50;;
3355;SDS011;1691;52.486;13.374;2023-02-05T01:28:02;3.93;;;3.70;;
3355;SDS011;1691;52.486;13.374;2023-02-05T01:30:29;6.40;;;2.90;;
3355;SDS011;1691;52.486;13.374;2023-02-05T01:32:57;3.30;;;2.97;;
3355;SDS011;1691;52.486;13.374;2023-02-05T01:35:24;3.60;;;3.33;;
3355;SDS011;1691;52.486;13.374;2023-02-05T01:37:50;3.87;;;3.10;;
3355;SDS011;1691;52.486;13.374;2023-02-05T01:40:18;2.60;;;2.50;;
3355;SDS011;1691;52.486;13.374;2023-02-05T01:42:45;7.87;;;3.57;;
3355;SDS011;1691;52.486;13.374;2023-02-05T01:47:49;4.33;;;3.97;;
3355;SDS011;1691;52.486;13.374;2023-02-05T01:50:28;4.97;;;3.27;;
3355;SDS011;1691;52.486;13.374;2023-02-05T01:53:03;2.90;;;2.70;;
3355;SDS011;1691;52.486;13.374;2023-02-05T01:55:35;4.27;;;3.77;;
3355;SDS011;1691;52.486;13.374;2023-02-05T01:58:13;5.47;;;3.03;;
3355;SDS011;1691;52.486;13.374;2023-02-05T02:00:40;3.20;;;3.10;;
3355;SDS011;1691;52.486;13.374;2023-02-05T02:03:09;4.20;;;3.10;;
3355;SDS011;1691;52.486;13.374;2023-02-05T02:05:39;2.83;;;2.63;;
3355;SDS011;1691;52.486;13.374;2023-02-05T02:08:06;2.77;;;2.57;;
3355;SDS011;1691;52.486;13.374;2023-02-05T02:10:37;3.30;;;3.10;;
3355;SDS011;1691;52.486;13.374;2023-02-05T02:13:05;3.53;;;3.30;;
3355;SDS011;1691;52.486;13.374;2023-02-05T02:15:33;3.13;;;2.93;;
3355;SDS011;1691;52.486;13.374;2023-02-05T02:18:01;3.43;;;3.20;;
3355;SDS011;1691;52.486;13.374;2023-02-05T02:20:48;7.50;;;3.00;;
3355;SDS011;1691;52.486;13.374;2023-02-05T02:33:06;3.73;;;3.53;;
3355;SDS011;1691;52.486;13.374;2023-02-05T02:36:18;3.93;;;3.70;;
3355;SDS011;1691;52.486;13.374;2023-02-05T02:42:05;3.97;;;3.60;;
3355;SDS011;1691;52.486;13.374;2023-02-05T02:47:44;5.73;;;3.77;;
3355;SDS011;1691;52.486;13.374;2023-02-05T02:50:26;4.90;;;4.60;;
3355;SDS011;1691;52.486;13.374;2023-02-05T02:53:01;5.40;;;4.83;;
3355;SDS011;1691;52.486;13.374;2023-02-05T02:55:42;6.63;;;3.60;;
3355;SDS011;1691;52.486;13.374;2023-02-05T02:58:15;6.03;;;4.43;;
3355;SDS011;1691;52.486;13.374;2023-02-05T03:00:48;4.10;;;3.90;;
3355;SDS011;1691;52.486;13.374;2023-02-05T03:03:18;4.73;;;4.43;;
3355;SDS011;1691;52.486;13.374;2023-02-05T03:05:48;7.47;;;4.03;;
3355;SDS011;1691;52.486;13.374;2023-02-05T03:08:21;4.03;;;3.77;;
3355;SDS011;1691;52.486;13.374;2023-02-05T03:11:04;4.10;;;3.90;;
3355;SDS011;1691;52.486;13.374;2023-02-05T03:13:38;9.33;;;4.23;;
3355;SDS011;1691;52.486;13.374;2023-02-05T03:16:06;6.47;;;4.70;;
3355;SDS011;1691;52.486;13.374;2023-02-05T03:18:34;4.10;;;3.90;;
3355;SDS011;1691;52.486;13.374;2023-02-05T03:21:04;4.87;;;4.40;;
3355;SDS011;1691;52.486;13.374;2023-02-05T03:23:42;5.50;;;4.90;;
3355;SDS011;1691;52.486;13.374;2023-02-05T03:26:27;4.67;;;4.30;;
3355;SDS011;1691;52.486;13.374;2023-02-05T03:29:07;4.13;;;3.90;;
3355;SDS011;1691;52.486;13.374;2023-02-05T03:40:54;8.60;;;3.90;;
3355;SDS011;1691;52.486;13.374;2023-02-05T03:47:06;3.83;;;3.57;;
3355;SDS011;1691;52.486;13.374;2023-02-05T03:50:07;3.70;;;3.50;;
3355;SDS011;1691;52.486;13.374;2023-02-05T03:52:45;7.03;;;3.93;;
3355;SDS011;1691;52.486;13.374;2023-02-05T03:55:27;4.33;;;3.13;;
3355;SDS011;1691;52.486;13.374;2023-02-05T03:58:03;8.57;;;3.20;;
3355;SDS011;1691;52.486;13.374;2023-02-05T04:00:40;2.50;;;2.40;;
3355;SDS011;1691;52.486;13.374;2023-02-05T04:03:08;3.23;;;2.97;;
3355;SDS011;1691;52.486;13.374;2023-02-05T04:05:35;3.90;;;3.60;;
3355;SDS011;1691;52.486;13.374;2023-02-05T04:08:02;4.37;;;2.97;;
3355;SDS011;1691;52.486;13.374;2023-02-05T04:10:30;3.80;;;3.60;;
3355;SDS011;1691;52.486;13.374;2023-02-05T04:12:56;4.00;;;3.00;;
3355;SDS011;1691;52.486;13.374;2023-02-05T04:15:24;6.13;;;3.80;;
3355;SDS011;1691;52.486;13.374;2023-02-05T04:17:51;4.10;;;3.80;;
3355;SDS011;1691;52.486;13.374;2023-02-05T04:20:18;4.80;;;3.10;;
3355;SDS011;1691;52.486;13.374;2023-02-05T04:22:45;3.10;;;3.00;;
3355;SDS011;1691;52.486;13.374;2023-02-05T04:25:12;3.83;;;3.20;;
3355;SDS011;1691;52.486;13.374;2023-02-05T04:27:39;2.90;;;2.80;;
3355;SDS011;1691;52.486;13.374;2023-02-05T04:30:06;3.27;;;3.13;;
3355;SDS011;1691;52.486;13.374;2023-02-05T04:32:34;3.20;;;3.00;;
3355;SDS011;1691;52.486;13.374;2023-02-05T04:35:01;6.73;;;3.10;;
3355;SDS011;1691;52.486;13.374;2023-02-05T04:37:28;4.03;;;3.30;;
3355;SDS011;1691;52.486;13.374;2023-02-05T04:39:55;4.20;;;2.63;;
3355;SDS011;1691;52.486;13.374;2023-02-05T04:42:22;3.27;;;3.07;;
3355;SDS011;1691;52.486;13.374;2023-02-05T04:44:49;2.80;;;2.60;;
3355;SDS011;1691;52.486;13.374;2023-02-05T04:47:17;2.63;;;2.53;;
3355;SDS011;1691;52.486;13.374;2023-02-05T04:49:45;2.93;;;1.93;;
3355;SDS011;1691;52.486;13.374;2023-02-05T04:52:12;2.57;;;2.47;;
3355;SDS011;1691;52.486;13.374;2023-02-05T04:54:38;2.53;;;2.43;;
3355;SDS011;1691;52.486;13.374;2023-02-05T04:57:05;2.67;;;2.47;;
3355;SDS011;1691;52.486;13.374;2023-02-05T04:59:32;4.60;;;2.80;;
3355;SDS011;1691;52.486;13.374;2023-02-05T05:01:59;2.60;;;2.40;;
3355;SDS011;1691;52.486;13.374;2023-02-05T05:04:27;3.23;;;3.03;;
3355;SDS011;1691;52.486;13.374;2023-02-05T05:06:53;3.10;;;2.50;;
3355;SDS011;1691;52.486;13.374;2023-02-05T05:09:20;2.90;;;2.70;;
3355;SDS011;1691;52.486;13.374;2023-02-05T05:11:52;3.63;;;3.43;;
3355;SDS011;1691;52.486;13.374;2023-02-05T05:14:21;7.20;;;3.30;;
3355;SDS011;1691;52.486;13.374;2023-02-05T05:16:48;3.37;;;3.13;;
3355;SDS011;1691;52.486;13.374;2023-02-05T05:19:15;2.93;;;2.73;;
3355;SDS011;1691;52.486;13.374;2023-02-05T05:21:43;3.03;;;2.93;;
3355;SDS011;1691;52.486;13.374;2023-02-05T05:24:09;2.60;;;2.40;;
3355;SDS011;1691;52.486;13.374;2023-02-05T05:26:37;2.83;;;2.73;;
3355;SDS011;1691;52.486;13.374;2023-02-05T05:29:11;3.40;;;2.70;;
3355;SDS011;1691;52.486;13.374;2023-02-05T05:31:40;2.80;;;2.70;;
3355;SDS011;1691;52.486;13.374;2023-02-05T05:34:07;6.83;;;3.10;;
3355;SDS011;1691;52.486;13.374;2023-02-05T05:36:34;3.13;;;2.80;;
3355;SDS011;1691;52.486;13.374;2023-02-05T05:39:01;2.50;;;2.30;;
3355;SDS011;1691;52.486;13.374;2023-02-05T05:41:47;3.30;;;3.10;;
3355;SDS011;1691;52.486;13.374;2023-02-05T05:44:32;2.53;;;2.43;;
3355;SDS011;1691;52.486;13.374;2023-02-05T05:46:59;2.43;;;2.20;;
3355;SDS011;1691;52.486;13.374;2023-02-05T05:49:26;2.13;;;2.03;;
3355;SDS011;1691;52.486;13.374;2023-02-05T05:51:53;2.73;;;2.53;;
3355;SDS011;1691;52.486;13.374;2023-02-05T05:54:20;3.00;;;2.87;;
3355;SDS011;1691;52.486;13.374;2023-02-05T05:56:47;7.77;;;3.20;;
3355;SDS011;1691;52.486;13.374;2023-02-05T05:59:14;3.20;;;3.10;;
3355;SDS011;1691;52.486;13.374;2023-02-05T06:01:42;2.83;;;2.63;;
3355;SDS011;1691;52.486;13.374;2023-02-05T06:04:09;3.20;;;2.97;;
3355;SDS011;1691;52.486;13.374;2023-02-05T06:06:36;3.77;;;3.20;;
3355;SDS011;1691;52.486;13.374;2023-02-05T06:09:03;4.60;;;2.40;;
3355;SDS011;1691;52.486;13.374;2023-02-05T06:11:30;3.23;;;3.13;;
3355;SDS011;1691;52.486;13.374;2023-02-05T06:13:57;5.23;;;3.40;;
3355;SDS011;1691;52.486;13.374;2023-02-05T06:16:24;2.77;;;2.67;;
3355;SDS011;1691;52.486;13.374;2023-02-05T06:18:52;3.43;;;3.17;;
3355;SDS011;1691;52.486;13.374;2023-02-05T06:21:20;3.73;;;3.43;;
3355;SDS011;1691;52.486;13.374;2023-02-05T06:23:48;3.00;;;2.90;;
3355;SDS011;1691;52.486;13.374;2023-02-05T06:26:15;3.70;;;3.50;;
3355;SDS011;1691;52.486;13.374;2023-02-05T06:28:42;4.07;;;3.67;;
3355;SDS011;1691;52.486;13.374;2023-02-05T06:31:09;2.97;;;2.80;;
3355;SDS011;1691;52.486;13.374;2023-02-05T06:33:36;3.63;;;3.10;;
3355;SDS011;1691;52.486;13.374;2023-02-05T06:36:03;3.40;;;3.20;;
3355;SDS011;1691;52.486;13.374;2023-02-05T06:38:30;2.67;;;2.47;;
3355;SDS011;1691;52.486;13.374;2023-02-05T06:40:57;5.90;;;3.33;;
3355;SDS011;1691;52.486;13.374;2023-02-05T06:43:24;3.73;;;3.37;;
3355;SDS011;1691;52.486;13.374;2023-02-05T06:45:52;2.70;;;2.50;;
3355;SDS011;1691;52.486;13.374;2023-02-05T06:48:19;5.27;;;3.20;;
3355;SDS011;1691;52.486;13.374;2023-02-05T06:50:46;4.23;;;3.47;;
3355;SDS011;1691;52.486;13.374;2023-02-05T06:53:12;3.20;;;3.00;;
3355;SDS011;1691;52.486;13.374;2023-02-05T06:55:39;3.93;;;3.70;;
3355;SDS011;1691;52.486;13.374;2023-02-05T06:58:06;4.17;;;3.97;;
3355;SDS011;1691;52.486;13.374;2023-02-05T07:00:34;3.97;;;3.40;;
3355;SDS011;1691;52.486;13.374;2023-02-05T07:03:01;3.30;;;3.10;;
3355;SDS011;1691;52.486;13.374;2023-02-05T07:05:28;2.80;;;2.70;;
3355;SDS011;1691;52.486;13.374;2023-02-05T07:07:55;2.83;;;2.73;;
3355;SDS011;1691;52.486;13.374;2023-02-05T07:10:22;3.33;;;3.13;;
3355;SDS011;1691;52.486;13.374;2023-02-05T07:12:49;3.70;;;2.97;;
3355;SDS011;1691;52.486;13.374;2023-02-05T07:15:16;6.70;;;3.13;;
3355;SDS011;1691;52.486;13.374;2023-02-05T07:17:43;5.23;;;3.90;;
3355;SDS011;1691;52.486;13.374;2023-02-05T07:20:10;28.10;;;12.77;;
3355;SDS011;1691;52.486;13.374;2023-02-05T07:22:37;4.57;;;4.20;;
3355;SDS011;1691;52.486;13.374;2023-02-05T07:25:04;3.40;;;3.27;;
3355;SDS011;1691;52.486;13.374;2023-02-05T07:27:32;3.50;;;3.30;;
3355;SDS011;1691;52.486;13.374;2023-02-05T07:29:59;3.50;;;3.30;;
3355;SDS011;1691;52.486;13.374;2023-02-05T07:32:26;3.10;;;3.00;;
3355;SDS011;1691;52.486;13.374;2023-02-05T07:34:53;3.67;;;3.47;;
3355;SDS011;1691;52.486;13.374;2023-02-05T07:37:20;3.17;;;2.97;;
3355;SDS011;1691;52.486;13.374;2023-02-05T07:39:47;5.00;;;3.60;;
3355;SDS011;1691;52.486;13.374;2023-02-05T07:42:14;3.43;;;3.23;;
3355;SDS011;1691;52.486;13.374;2023-02-05T07:44:41;5.43;;;3.70;;
3355;SDS011;1691;52.486;13.374;2023-02-05T07:47:08;4.23;;;3.20;;
3355;SDS011;1691;52.486;13.374;2023-02-05T07:49:35;3.10;;;3.00;;
3355;SDS011;1691;52.486;13.374;2023-02-05T07:52:02;3.50;;;3.30;;
3355;SDS011;1691;52.486;13.374;2023-02-05T07:54:29;6.73;;;2.90;;
3355;SDS011;1691;52.486;13.374;2023-02-05T07:56:56;4.60;;;3.73;;
3355;SDS011;1691;52.486;13.374;2023-02-05T07:59:25;3.70;;;3.40;;
3355;SDS011;1691;52.486;13.374;2023-02-05T08:01:52;3.37;;;3.27;;
3355;SDS011;1691;52.486;13.374;2023-02-05T08:04:19;3.47;;;3.27;;
3355;SDS011;1691;52.486;13.374;2023-02-05T08:06:46;3.30;;;3.20;;
3355;SDS011;1691;52.486;13.374;2023-02-05T08:09:13;6.70;;;2.93;;
3355;SDS011;1691;52.486;13.374;2023-02-05T08:11:41;3.60;;;3.33;;
3355;SDS011;1691;52.486;13.374;2023-02-05T08:14:09;4.13;;;2.80;;
3355;SDS011;1691;52.486;13.374;2023-02-05T08:16:36;2.87;;;2.77;;
3355;SDS011;1691;52.486;13.374;2023-02-05T08:19:03;3.30;;;3.07;;
3355;SDS011;1691;52.486;13.374;2023-02-05T08:21:30;4.73;;;3.77;;
3355;SDS011;1691;52.486;13.374;2023-02-05T08:23:57;3.83;;;3.33;;
3355;SDS011;1691;52.486;13.374;2023-02-05T08:26:26;3.97;;;3.67;;
3355;SDS011;1691;52.486;13.374;2023-02-05T08:28:53;3.27;;;3.03;;
3355;SDS011;1691;52.486;13.374;2023-02-05T08:31:21;12.03;;;3.30;;
3355;SDS011;1691;52.486;13.374;2023-02-05T08:33:48;5.27;;;3.57;;
3355;SDS011;1691;52.486;13.374;2023-02-05T08:36:18;4.33;;;2.97;;
3355;SDS011;1691;52.486;13.374;2023-02-05T08:38:45;3.30;;;3.07;;
3355;SDS011;1691;52.486;13.374;2023-02-05T08:41:12;4.87;;;3.00;;
3355;SDS011;1691;52.486;13.374;2023-02-05T08:43:40;2.33;;;2.23;;
3355;SDS011;1691;52.486;13.374;2023-02-05T08:46:13;2.77;;;2.57;;
3355;SDS011;1691;52.486;13.374;2023-02-05T08:48:45;3.40;;;3.20;;
3355;SDS011;1691;52.486;13.374;2023-02-05T08:51:13;3.93;;;2.70;;
3355;SDS011;1691;52.486;13.374;2023-02-05T08:53:41;3.90;;;3.53;;
3355;SDS011;1691;52.486;13.374;2023-02-05T08:56:08;2.80;;;2.70;;
3355;SDS011;1691;52.486;13.374;2023-02-05T08:58:38;6.00;;;3.13;;
3355;SDS011;1691;52.486;13.374;2023-02-05T09:01:13;3.60;;;3.17;;
3355;SDS011;1691;52.486;13.374;2023-02-05T09:03:42;3.07;;;2.93;;
3355;SDS011;1691;52.486;13.374;2023-02-05T09:06:12;4.90;;;2.53;;
3355;SDS011;1691;52.486;13.374;2023-02-05T09:08:40;3.17;;;3.07;;
3355;SDS011;1691;52.486;13.374;2023-02-05T09:11:08;3.83;;;3.07;;
3355;SDS011;1691;52.486;13.374;2023-02-05T09:13:36;4.80;;;3.40;;
3355;SDS011;1691;52.486;13.374;2023-02-05T09:16:03;3.00;;;2.90;;
3355;SDS011;1691;52.486;13.374;2023-02-05T09:18:30;10.40;;;2.90;;
3355;SDS011;1691;52.486;13.374;2023-02-05T09:20:57;3.80;;;3.50;;
3355;SDS011;1691;52.486;13.374;2023-02-05T09:23:24;4.50;;;2.90;;
3355;SDS011;1691;52.486;13.374;2023-02-05T09:25:51;3.20;;;3.00;;
3355;SDS011;1691;52.486;13.374;2023-02-05T09:28:18;2.87;;;2.60;;
3355;SDS011;1691;52.486;13.374;2023-02-05T09:30:46;2.73;;;2.53;;
3355;SDS011;1691;52.486;13.374;2023-02-05T09:33:13;3.40;;;3.10;;
3355;SDS011;1691;52.486;13.374;2023-02-05T09:35:40;3.33;;;3.13;;
3355;SDS011;1691;52.486;13.374;2023-02-05T09:38:08;8.83;;;3.23;;
3355;SDS011;1691;52.486;13.374;2023-02-05T09:41:01;4.80;;;3.13;;
3355;SDS011;1691;52.486;13.374;2023-02-05T09:52:02;5.07;;;2.47;;
3355;SDS011;1691;52.486;13.374;2023-02-05T09:54:38;2.93;;;2.70;;
3355;SDS011;1691;52.486;13.374;2023-02-05T09:57:10;3.93;;;2.03;;
3355;SDS011;1691;52.486;13.374;2023-02-05T09:59:42;2.60;;;2.50;;
3355;SDS011;1691;52.486;13.374;2023-02-05T10:02:55;2.20;;;2.10;;
3355;SDS011;1691;52.486;13.374;2023-02-05T10:05:15;2.37;;;2.27;;
3355;SDS011;1691;52.486;13.374;2023-02-05T10:08:18;3.30;;;3.00;;
3355;SDS011;1691;52.486;13.374;2023-02-05T10:11:18;2.53;;;2.37;;
3355;SDS011;1691;52.486;13.374;2023-02-05T10:14:08;2.67;;;2.47;;
3355;SDS011;1691;52.486;13.374;2023-02-05T10:19:44;4.13;;;3.20;;
3355;SDS011;1691;52.486;13.374;2023-02-05T10:25:58;3.50;;;3.40;;
3355;SDS011;1691;52.486;13.374;2023-02-05T10:28:43;3.03;;;2.93;;
3355;SDS011;1691;52.486;13.374;2023-02-05T10:31:54;5.43;;;3.90;;
3355;SDS011;1691;52.486;13.374;2023-02-05T10:37:42;2.97;;;2.77;;
3355;SDS011;1691;52.486;13.374;2023-02-05T10:40:33;13.00;;;2.90;;
3355;SDS011;1691;52.486;13.374;2023-02-05T10:45:55;4.97;;;3.20;;
3355;SDS011;1691;52.486;13.374;2023-02-05T10:53:27;1.70;;;1.60;;
3355;SDS011;1691;52.486;13.374;2023-02-05T10:55:56;2.30;;;2.03;;
3355;SDS011;1691;52.486;13.374;2023-02-05T10:58:43;6.37;;;2.30;;
3355;SDS011;1691;52.486;13.374;2023-02-05T11:01:23;2.03;;;1.90;;
3355;SDS011;1691;52.486;13.374;2023-02-05T11:04:00;2.10;;;2.00;;
3355;SDS011;1691;52.486;13.374;2023-02-05T11:06:49;5.60;;;1.90;;
3355;SDS011;1691;52.486;13.374;2023-02-05T11:11:51;2.37;;;2.17;;
3355;SDS011;1691;52.486;13.374;2023-02-05T11:14:36;3.53;;;1.90;;
3355;SDS011;1691;52.486;13.374;2023-02-05T11:17:48;1.50;;;1.40;;
3355;SDS011;1691;52.486;13.374;2023-02-05T11:20:05;1.90;;;1.63;;
3355;SDS011;1691;52.486;13.374;2023-02-05T11:22:48;2.93;;;1.90;;
3355;SDS011;1691;52.486;13.374;2023-02-05T11:25:19;1.53;;;1.43;;
3355;SDS011;1691;52.486;13.374;2023-02-05T11:27:55;3.27;;;2.27;;
3355;SDS011;1691;52.486;13.374;2023-02-05T11:30:32;1.57;;;1.47;;
3355;SDS011;1691;52.486;13.374;2023-02-05T11:38:45;1.63;;;1.53;;
3355;SDS011;1691;52.486;13.374;2023-02-05T11:43:57;8.83;;;2.07;;
3355;SDS011;1691;52.486;13.374;2023-02-05T11:46:28;7.47;;;1.70;;
3355;SDS011;1691;52.486;13.374;2023-02-05T11:49:00;2.70;;;2.43;;
3355;SDS011;1691;52.486;13.374;2023-02-05T11:51:43;2.30;;;1.87;;
3355;SDS011;1691;52.486;13.374;2023-02-05T12:00:13;4.17;;;1.77;;
3355;SDS011;1691;52.486;13.374;2023-02-05T12:02:38;10.53;;;2.07;;
3355;SDS011;1691;52.486;13.374;2023-02-05T12:25:28;3.00;;;1.97;;
3355;SDS011;1691;52.486;13.374;2023-02-05T12:28:19;2.70;;;2.50;;
3355;SDS011;1691;52.486;13.374;2023-02-05T12:36:45;3.17;;;2.27;;
3355;SDS011;1691;52.486;13.374;2023-02-05T12:39:37;2.10;;;2.00;;
3355;SDS011;1691;52.486;13.374;2023-02-05T12:59:01;3.43;;;1.77;;
3355;SDS011;1691;52.486;13.374;2023-02-05T13:01:50;4.73;;;2.30;;
3355;SDS011;1691;52.486;13.374;2023-02-05T13:04:29;7.80;;;2.40;;
3355;SDS011;1691;52.486;13.374;2023-02-05T13:07:14;2.43;;;2.23;;
3355;SDS011;1691;52.486;13.374;2023-02-05T13:10:06;5.60;;;2.40;;
3355;SDS011;1691;52.486;13.374;2023-02-05T13:12:52;2.30;;;2.10;;
3355;SDS011;1691;52.486;13.374;2023-02-05T13:15:29;1.70;;;1.60;;
3355;SDS011;1691;52.486;13.374;2023-02-05T13:18:05;2.40;;;2.20;;
3355;SDS011;1691;52.486;13.374;2023-02-05T13:20:53;2.03;;;1.93;;
3355;SDS011;1691;52.486;13.374;2023-02-05T13:23:42;2.03;;;1.80;;
3355;SDS011;1691;52.486;13.374;2023-02-05T13:26:39;2.67;;;2.47;;
3355;SDS011;1691;52.486;13.374;2023-02-05T13:29:30;2.20;;;1.70;;
3355;SDS011;1691;52.486;13.374;2023-02-05T13:32:09;2.10;;;2.00;;
3355;SDS011;1691;52.486;13.374;2023-02-05T13:34:41;2.30;;;2.03;;
3355;SDS011;1691;52.486;13.374;2023-02-05T13:37:16;1.70;;;1.60;;
3355;SDS011;1691;52.486;13.374;2023-02-05T14:00:34;2.00;;;1.83;;
3355;SDS011;1691;52.486;13.374;2023-02-05T14:03:07;3.10;;;2.37;;
3355;SDS011;1691;52.486;13.374;2023-02-05T14:06:13;3.10;;;2.50;;
3355;SDS011;1691;52.486;13.374;2023-02-05T14:09:06;9.00;;;1.90;;
3355;SDS011;1691;52.486;13.374;2023-02-05T14:11:53;1.97;;;1.87;;
3355;SDS011;1691;52.486;13.374;2023-02-05T14:16:58;2.93;;;1.90;;
3355;SDS011;1691;52.486;13.374;2023-02-05T14:22:00;2.80;;;2.60;;
3355;SDS011;1691;52.486;13.374;2023-02-05T14:24:46;2.10;;;2.00;;
3355;SDS011;1691;52.486;13.374;2023-02-05T14:27:19;2.70;;;2.60;;
3355;SDS011;1691;52.486;13.374;2023-02-05T14:37:59;2.37;;;2.20;;
3355;SDS011;1691;52.486;13.374;2023-02-05T14:40:32;2.10;;;2.00;;
3355;SDS011;1691;52.486;13.374;2023-02-05T14:43:15;1.90;;;1.80;;
3355;SDS011;1691;52.486;13.374;2023-02-05T14:45:52;2.00;;;1.80;;
3355;SDS011;1691;52.486;13.374;2023-02-05T14:48:21;1.77;;;1.67;;
3355;SDS011;1691;52.486;13.374;2023-02-05T14:54:03;2.07;;;1.60;;
3355;SDS011;1691;52.486;13.374;2023-02-05T14:59:40;2.07;;;1.97;;
3355;SDS011;1691;52.486;13.374;2023-02-05T15:02:47;10.00;;;3.37;;
3355;SDS011;1691;52.486;13.374;2023-02-05T15:11:12;2.00;;;1.90;;
3355;SDS011;1691;52.486;13.374;2023-02-05T15:19:32;3.77;;;2.43;;
3355;SDS011;1691;52.486;13.374;2023-02-05T15:24:45;3.27;;;2.33;;
3355;SDS011;1691;52.486;13.374;2023-02-05T15:27:15;3.57;;;2.20;;
3355;SDS011;1691;52.486;13.374;2023-02-05T15:29:51;2.77;;;2.40;;
3355;SDS011;1691;52.486;13.374;2023-02-05T15:34:54;2.53;;;2.33;;
3355;SDS011;1691;52.486;13.374;2023-02-05T15:37:32;3.30;;;2.90;;
3355;SDS011;1691;52.486;13.374;2023-02-05T15:40:15;4.03;;;2.33;;
3355;SDS011;1691;52.486;13.374;2023-02-05T15:42:58;4.07;;;2.90;;
3355;SDS011;1691;52.486;13.374;2023-02-05T15:45:37;2.23;;;2.10;;
3355;SDS011;1691;52.486;13.374;2023-02-05T15:50:46;2.23;;;2.10;;
3355;SDS011;1691;52.486;13.374;2023-02-05T15:58:46;4.60;;;4.30;;
3355;SDS011;1691;52.486;13.374;2023-02-05T16:03:55;8.77;;;6.50;;
3355;SDS011;1691;52.486;13.374;2023-02-05T16:06:23;6.07;;;3.10;;
3355;SDS011;1691;52.486;13.374;2023-02-05T16:08:53;3.20;;;3.10;;
3355;SDS011;1691;52.486;13.374;2023-02-05T16:11:34;2.73;;;2.63;;
3355;SDS011;1691;52.486;13.374;2023-02-05T16:14:04;6.73;;;4.00;;
3355;SDS011;1691;52.486;13.374;2023-02-05T16:19:41;2.83;;;2.43;;
3355;SDS011;1691;52.486;13.374;2023-02-05T16:24:53;3.53;;;3.33;;
3355;SDS011;1691;52.486;13.374;2023-02-05T16:27:34;3.20;;;3.00;;
3355;SDS011;1691;52.486;13.374;2023-02-05T16:30:17;2.20;;;2.10;;
3355;SDS011;1691;52.486;13.374;2023-02-05T16:33:17;5.37;;;4.97;;
3355;SDS011;1691;52.486;13.374;2023-02-05T16:35:53;4.40;;;3.47;;
3355;SDS011;1691;52.486;13.374;2023-02-05T16:38:22;4.83;;;3.27;;
3355;SDS011;1691;52.486;13.374;2023-02-05T16:40:51;4.83;;;4.00;;
3355;SDS011;1691;52.486;13.374;2023-02-05T16:48:36;4.23;;;2.80;;
3355;SDS011;1691;52.486;13.374;2023-02-05T16:51:11;7.50;;;4.47;;
3355;SDS011;1691;52.486;13.374;2023-02-05T16:59:15;3.70;;;3.40;;
3355;SDS011;1691;52.486;13.374;2023-02-05T17:01:49;4.70;;;3.47;;
3355;SDS011;1691;52.486;13.374;2023-02-05T17:04:21;5.87;;;4.10;;
3355;SDS011;1691;52.486;13.374;2023-02-05T17:06:54;4.57;;;4.07;;
3355;SDS011;1691;52.486;13.374;2023-02-05T17:09:27;4.70;;;4.27;;
3355;SDS011;1691;52.486;13.374;2023-02-05T17:14:56;5.70;;;4.67;;
3355;SDS011;1691;52.486;13.374;2023-02-05T17:17:30;11.03;;;5.87;;
3355;SDS011;1691;52.486;13.374;2023-02-05T17:20:02;7.70;;;5.80;;
3355;SDS011;1691;52.486;13.374;2023-02-05T17:23:24;14.80;;;4.80;;
3355;SDS011;1691;52.486;13.374;2023-02-05T17:28:21;7.20;;;5.97;;
3355;SDS011;1691;52.486;13.374;2023-02-05T17:30:55;6.87;;;6.17;;
3355;SDS011;1691;52.486;13.374;2023-02-05T17:33:25;5.10;;;4.70;;
3355;SDS011;1691;52.486;13.374;2023-02-05T17:35:53;7.80;;;4.63;;
3355;SDS011;1691;52.486;13.374;2023-02-05T17:38:21;10.13;;;5.40;;
3355;SDS011;1691;52.486;13.374;2023-02-05T17:40:51;9.17;;;5.20;;
3355;SDS011;1691;52.486;13.374;2023-02-05T17:43:40;4.90;;;4.50;;
3355;SDS011;1691;52.486;13.374;2023-02-05T17:46:09;10.73;;;4.60;;
3355;SDS011;1691;52.486;13.374;2023-02-05T17:48:39;5.90;;;5.20;;
3355;SDS011;1691;52.486;13.374;2023-02-05T17:51:10;5.10;;;4.80;;
3355;SDS011;1691;52.486;13.374;2023-02-05T17:53:45;5.80;;;5.30;;
3355;SDS011;1691;52.486;13.374;2023-02-05T17:56:14;5.27;;;4.97;;
3355;SDS011;1691;52.486;13.374;2023-02-05T17:58:44;9.80;;;5.53;;
3355;SDS011;1691;52.486;13.374;2023-02-05T18:01:11;11.40;;;6.83;;
3355;SDS011;1691;52.486;13.374;2023-02-05T18:03:39;7.70;;;7.03;;
3355;SDS011;1691;52.486;13.374;2023-02-05T18:06:06;7.83;;;7.03;;
3355;SDS011;1691;52.486;13.374;2023-02-05T18:08:35;7.33;;;6.63;;
3355;SDS011;1691;52.486;13.374;2023-02-05T18:11:02;11.87;;;8.57;;
3355;SDS011;1691;52.486;13.374;2023-02-05T18:13:29;11.50;;;7.70;;
3355;SDS011;1691;52.486;13.374;2023-02-05T18:15:56;12.40;;;7.60;;
3355;SDS011;1691;52.486;13.374;2023-02-05T18:18:31;8.93;;;7.30;;
3355;SDS011;1691;52.486;13.374;2023-02-05T18:21:02;13.73;;;9.10;;
3355;SDS011;1691;52.486;13.374;2023-02-05T18:23:29;8.50;;;7.60;;
3355;SDS011;1691;52.486;13.374;2023-02-05T18:25:57;6.67;;;6.00;;
3355;SDS011;1691;52.486;13.374;2023-02-05T18:28:25;8.77;;;5.70;;
3355;SDS011;1691;52.486;13.374;2023-02-05T18:33:32;6.60;;;6.00;;
3355;SDS011;1691;52.486;13.374;2023-02-05T18:36:00;7.63;;;6.80;;
3355;SDS011;1691;52.486;13.374;2023-02-05T18:38:29;6.57;;;5.80;;
3355;SDS011;1691;52.486;13.374;2023-02-05T18:41:13;8.00;;;5.70;;
3355;SDS011;1691;52.486;13.374;2023-02-05T18:43:43;7.87;;;7.13;;
3355;SDS011;1691;52.486;13.374;2023-02-05T18:46:12;9.77;;;6.57;;
3355;SDS011;1691;52.486;13.374;2023-02-05T18:48:41;14.23;;;7.77;;
3355;SDS011;1691;52.486;13.374;2023-02-05T18:51:13;12.37;;;7.63;;
3355;SDS011;1691;52.486;13.374;2023-02-05T18:53:43;17.53;;;7.40;;
3355;SDS011;1691;52.486;13.374;2023-02-05T18:56:12;7.43;;;6.60;;
3355;SDS011;1691;52.486;13.374;2023-02-05T18:58:49;6.73;;;6.13;;
3355;SDS011;1691;52.486;13.374;2023-02-05T19:01:27;6.30;;;5.80;;